Time;durP1;ratioP1;P1;durP2;ratioP2;P2;SDS_P1;SDS_P2;PMS_P1;PMS_P2;Temp;Humidity;BMP_temperature;BMP_pressure;BME280_temperature;BME280_humidity;BME280_pressure;Samples;Min_cycle;Max_cycle;Signal;HPM_P1;HPM_P2
2022/09/11 00:00:18;;;;;;;2.90;1.95;;;16.50;91.50;;;;;;4969178;28;20102;-71
2022/09/11 00:02:44;;;;;;;3.85;2.35;;;16.50;91.40;;;;;;4958461;28;20051;-72
2022/09/11 00:05:09;;;;;;;4.47;2.47;;;16.50;91.60;;;;;;4953043;28;20059;-72
2022/09/11 00:07:35;;;;;;;5.20;2.72;;;16.50;91.40;;;;;;4953437;28;20059;-71
2022/09/11 00:10:01;;;;;;;4.60;2.40;;;16.50;91.70;;;;;;4961247;28;20047;-71
2022/09/11 00:12:27;;;;;;;3.47;2.42;;;16.50;91.80;;;;;;4956124;28;20126;-71
2022/09/11 00:14:52;;;;;;;3.10;2.15;;;16.40;91.90;;;;;;4955414;28;20488;-71
2022/09/11 00:17:20;;;;;;;4.03;2.80;;;16.40;92.00;;;;;;4957446;28;20417;-72
2022/09/11 00:19:46;;;;;;;4.72;3.10;;;16.40;92.00;;;;;;4979051;28;20241;-71
2022/09/11 00:22:13;;;;;;;4.55;2.65;;;16.40;92.50;;;;;;4953774;28;20889;-71
2022/09/11 00:24:40;;;;;;;3.83;2.85;;;16.40;92.20;;;;;;4933190;28;20053;-71
2022/09/11 00:27:06;;;;;;;3.58;2.35;;;16.40;92.20;;;;;;4969901;28;20468;-72
2022/09/11 00:29:32;;;;;;;4.07;2.78;;;16.50;92.10;;;;;;4938544;28;20138;-71
2022/09/11 00:31:58;;;;;;;3.85;2.50;;;16.50;92.10;;;;;;4942449;28;20693;-71
2022/09/11 00:34:24;;;;;;;4.28;2.75;;;16.60;92.10;;;;;;4939482;28;20086;-72
2022/09/11 00:36:51;;;;;;;5.97;2.85;;;16.60;92.10;;;;;;4929556;28;20052;-71
2022/09/11 00:39:17;;;;;;;4.15;2.83;;;16.50;92.10;;;;;;4947601;28;20616;-71
2022/09/11 00:41:44;;;;;;;4.53;3.05;;;16.50;92.20;;;;;;4946454;28;20039;-72
2022/09/11 00:44:16;;;;;;;3.63;2.63;;;16.50;92.30;;;;;;4925230;28;20051;-71
2022/09/11 00:46:45;;;;;;;5.07;3.10;;;16.50;92.20;;;;;;4953950;28;20054;-72
2022/09/11 00:49:11;;;;;;;5.20;2.70;;;16.50;92.30;;;;;;4947596;28;20058;-72
2022/09/11 00:51:37;;;;;;;4.82;2.78;;;16.50;92.30;;;;;;4959460;28;20544;-72
2022/09/11 00:54:05;;;;;;;5.60;3.25;;;16.50;92.30;;;;;;4932512;28;20062;-71
2022/09/11 00:56:34;;;;;;;3.45;3.00;;;16.50;92.20;;;;;;4937983;28;20050;-71
2022/09/11 00:59:00;;;;;;;5.40;3.13;;;16.40;92.50;;;;;;4938393;28;20725;-71
2022/09/11 01:01:26;;;;;;;5.10;3.42;;;16.40;92.70;;;;;;4918325;28;20077;-71
2022/09/11 01:03:51;;;;;;;5.32;3.78;;;16.30;92.70;;;;;;4937442;28;20047;-71
2022/09/11 01:06:19;;;;;;;6.45;3.20;;;16.30;92.80;;;;;;4953096;28;20050;-71
2022/09/11 01:08:45;;;;;;;4.90;3.53;;;16.30;92.60;;;;;;4934674;28;20050;-72
2022/09/11 01:11:20;;;;;;;6.38;4.13;;;16.30;92.70;;;;;;4951843;28;20150;-72
2022/09/11 01:14:07;;;;;;;6.45;3.80;;;16.30;92.70;;;;;;4935226;28;20556;-72
2022/09/11 01:16:53;;;;;;;5.57;4.03;;;16.20;93.00;;;;;;4949083;28;20420;-71
2022/09/11 01:19:45;;;;;;;6.10;3.40;;;16.20;92.80;;;;;;4964961;28;20301;-71
2022/09/11 01:22:49;;;;;;;4.35;3.30;;;16.20;92.80;;;;;;4938843;28;20484;-72
2022/09/11 01:25:43;;;;;;;26.85;23.73;;;16.20;92.80;;;;;;4952285;28;20113;-71
2022/09/11 01:28:17;;;;;;;34.30;30.85;;;16.20;92.90;;;;;;4936460;28;20043;-71
2022/09/11 01:30:46;;;;;;;10.35;9.23;;;16.10;93.30;;;;;;4961924;28;20477;-73
2022/09/11 01:33:21;;;;;;;7.13;5.47;;;16.00;93.80;;;;;;4966435;28;20057;-71
2022/09/11 01:36:04;;;;;;;6.93;5.25;;;15.90;93.70;;;;;;4953022;28;20043;-71
2022/09/11 01:38:45;;;;;;;8.75;5.60;;;15.90;93.80;;;;;;4957601;28;20058;-72
2022/09/11 01:41:19;;;;;;;6.18;4.80;;;15.80;93.90;;;;;;4951334;28;20113;-71
2022/09/11 01:43:55;;;;;;;8.70;5.57;;;15.80;94.00;;;;;;4931876;29;20047;-71
2022/09/11 01:46:24;;;;;;;6.35;5.75;;;15.70;94.30;;;;;;4946387;28;20134;-71
2022/09/11 01:49:01;;;;;;;6.57;5.10;;;15.60;94.30;;;;;;4919407;28;20333;-71
2022/09/11 01:51:29;;;;;;;6.93;5.20;;;15.70;94.30;;;;;;4936179;28;20050;-71
2022/09/11 01:53:55;;;;;;;6.03;5.05;;;15.70;94.40;;;;;;4952681;28;20198;-71
2022/09/11 01:56:23;;;;;;;6.57;5.30;;;15.70;94.20;;;;;;4919514;28;20517;-71
2022/09/11 01:58:49;;;;;;;7.57;5.40;;;15.70;94.30;;;;;;4952310;28;20190;-71
2022/09/11 02:01:20;;;;;;;8.60;6.80;;;15.70;94.30;;;;;;4948145;28;20055;-71
2022/09/11 02:04:09;;;;;;;9.13;8.07;;;15.60;94.40;;;;;;4928395;28;20047;-71
2022/09/11 02:06:50;;;;;;;10.65;6.95;;;15.60;94.50;;;;;;4953418;28;20046;-71
2022/09/11 02:09:19;;;;;;;10.68;7.85;;;15.60;94.50;;;;;;4943985;29;20043;-71
2022/09/11 02:11:45;;;;;;;8.35;7.38;;;15.50;94.70;;;;;;4938377;28;20043;-71
2022/09/11 02:14:15;;;;;;;9.32;7.15;;;15.50;94.80;;;;;;4933801;28;20109;-71
2022/09/11 02:16:45;;;;;;;7.72;6.25;;;15.50;94.60;;;;;;4957981;28;20051;-71
2022/09/11 02:19:16;;;;;;;9.95;7.97;;;15.60;95.00;;;;;;4947081;28;20560;-72
2022/09/11 02:21:42;;;;;;;12.25;7.95;;;15.60;94.60;;;;;;4934771;28;20051;-71
2022/09/11 02:24:08;;;;;;;12.80;7.38;;;15.60;94.80;;;;;;4919048;28;20042;-71
2022/09/11 02:26:38;;;;;;;12.07;8.38;;;15.60;94.80;;;;;;4941725;28;20054;-71
2022/09/11 02:29:04;;;;;;;12.50;9.30;;;15.60;95.00;;;;;;4957092;28;20047;-71
2022/09/11 02:31:30;;;;;;;12.40;9.95;;;15.60;95.20;;;;;;4934289;28;20059;-72
2022/09/11 02:33:56;;;;;;;14.80;10.35;;;15.50;95.40;;;;;;4942302;28;20500;-71
2022/09/11 02:36:31;;;;;;;12.65;10.52;;;15.60;95.30;;;;;;4952436;28;20055;-71
2022/09/11 02:39:34;;;;;;;15.73;11.90;;;15.60;95.20;;;;;;4951541;28;20058;-71
2022/09/11 02:42:21;;;;;;;14.00;11.27;;;15.60;95.20;;;;;;4959172;28;20138;-72
2022/09/11 02:45:05;;;;;;;14.98;11.93;;;15.60;95.40;;;;;;4958725;28;20047;-72
2022/09/11 02:47:45;;;;;;;18.70;12.88;;;15.60;95.40;;;;;;4964843;28;20064;-72
2022/09/11 02:50:20;;;;;;;21.27;13.38;;;15.60;95.20;;;;;;4930795;28;20051;-71
2022/09/11 02:52:57;;;;;;;16.50;12.05;;;15.60;95.30;;;;;;4948068;28;20067;-71
2022/09/11 02:56:08;;;;;;;20.60;12.63;;;15.60;95.40;;;;;;4946815;28;20055;-71
2022/09/11 02:59:02;;;;;;;25.95;15.10;;;15.60;95.90;;;;;;4936497;29;20138;-71
2022/09/11 03:01:28;;;;;;;27.33;15.32;;;15.40;96.00;;;;;;4943929;29;20519;-71
2022/09/11 03:03:54;;;;;;;21.77;15.20;;;15.40;96.20;;;;;;4933368;28;20044;-72
2022/09/11 03:06:21;;;;;;;23.45;15.57;;;15.40;96.10;;;;;;4917336;29;20884;-71
2022/09/11 03:08:48;;;;;;;20.17;15.48;;;15.50;96.00;;;;;;4945165;29;20047;-72
2022/09/11 03:11:16;;;;;;;18.80;14.73;;;15.50;95.60;;;;;;4911182;29;20063;-71
2022/09/11 03:13:42;;;;;;;19.75;14.18;;;15.50;95.50;;;;;;4961673;28;20074;-72
2022/09/11 03:16:08;;;;;;;17.48;13.98;;;15.50;95.40;;;;;;4946029;29;20051;-70
2022/09/11 03:18:34;;;;;;;18.52;14.68;;;15.40;95.90;;;;;;4929960;29;20082;-70
2022/09/11 03:21:00;;;;;;;24.92;14.63;;;15.40;95.80;;;;;;4929888;29;20079;-70
2022/09/11 03:23:26;;;;;;;22.80;15.32;;;15.40;95.90;;;;;;4927399;29;20079;-70
2022/09/11 03:25:53;;;;;;;43.20;15.75;;;15.30;96.00;;;;;;4948581;28;20086;-71
2022/09/11 03:28:22;;;;;;;18.63;14.70;;;15.30;96.40;;;;;;4930743;29;20059;-71
2022/09/11 03:30:51;;;;;;;66.30;17.85;;;15.20;96.50;;;;;;4948823;29;20098;-71
2022/09/11 03:33:17;;;;;;;21.48;15.65;;;15.20;96.40;;;;;;4950145;29;20078;-70
2022/09/11 03:35:43;;;;;;;17.95;14.27;;;15.10;96.70;;;;;;4933466;29;20104;-70
2022/09/11 03:38:10;;;;;;;17.92;14.75;;;15.20;96.30;;;;;;4914922;29;20055;-70
2022/09/11 03:40:36;;;;;;;13.65;12.02;;;15.00;96.80;;;;;;4929569;29;20047;-70
2022/09/11 03:43:02;;;;;;;15.40;12.10;;;14.90;96.70;;;;;;4918544;29;20471;-71
2022/09/11 03:45:28;;;;;;;14.38;12.40;;;15.00;96.30;;;;;;4916353;29;20043;-71
2022/09/11 03:47:54;;;;;;;17.88;12.95;;;15.00;96.10;;;;;;4949446;29;20039;-71
2022/09/11 03:50:21;;;;;;;15.73;13.18;;;15.00;96.20;;;;;;4912887;29;20086;-71
2022/09/11 03:52:49;;;;;;;11.85;10.65;;;14.70;96.50;;;;;;4940397;29;20050;-71
2022/09/11 03:55:15;;;;;;;13.77;10.18;;;14.60;96.50;;;;;;4933496;29;20679;-71
2022/09/11 03:57:41;;;;;;;12.15;10.52;;;14.50;96.70;;;;;;4948754;29;20070;-71
2022/09/11 04:00:07;;;;;;;13.75;11.73;;;14.50;96.60;;;;;;4936584;29;20130;-70
2022/09/11 04:02:33;;;;;;;14.65;11.27;;;14.60;96.40;;;;;;4945364;28;20054;-71
2022/09/11 04:04:59;;;;;;;12.95;11.02;;;14.60;96.40;;;;;;4933655;29;20062;-70
2022/09/11 04:07:24;;;;;;;26.77;12.05;;;14.70;96.20;;;;;;4950025;29;20392;-70
2022/09/11 04:09:50;;;;;;;21.10;12.00;;;14.70;96.40;;;;;;4932743;29;20055;-70
2022/09/11 04:12:17;;;;;;;36.08;13.68;;;14.70;96.70;;;;;;4931326;29;20074;-70
2022/09/11 04:14:43;;;;;;;15.35;11.05;;;14.60;97.00;;;;;;4931791;29;20159;-71
2022/09/11 04:17:10;;;;;;;62.45;14.30;;;14.70;96.70;;;;;;4948824;29;20055;-70
2022/09/11 04:19:35;;;;;;;16.63;12.82;;;14.70;96.70;;;;;;4925439;29;20059;-70
2022/09/11 04:22:02;;;;;;;29.83;13.70;;;14.60;97.10;;;;;;4945372;29;20043;-70
2022/09/11 04:24:28;;;;;;;32.05;14.98;;;14.50;97.30;;;;;;4947111;29;20051;-70
2022/09/11 04:26:54;;;;;;;15.15;13.00;;;14.50;97.30;;;;;;4933165;29;20365;-70
2022/09/11 04:29:21;;;;;;;20.30;13.77;;;14.50;97.10;;;;;;4964379;28;20059;-70
2022/09/11 04:31:47;;;;;;;15.00;12.80;;;14.60;97.10;;;;;;4939923;29;20382;-70
2022/09/11 04:34:12;;;;;;;14.77;12.73;;;14.60;97.20;;;;;;4943375;28;20062;-70
2022/09/11 04:36:38;;;;;;;24.52;13.57;;;14.70;96.90;;;;;;4942201;28;20609;-70
2022/09/11 04:39:04;;;;;;;44.13;16.27;;;14.70;96.80;;;;;;4948708;28;20137;-70
2022/09/11 04:41:29;;;;;;;20.80;14.30;;;14.70;97.40;;;;;;4951992;29;20051;-70
2022/09/11 04:44:01;;;;;;;21.25;13.95;;;14.60;97.60;;;;;;4945205;29;20047;-70
2022/09/11 04:46:28;;;;;;;22.90;14.13;;;14.60;97.60;;;;;;4931115;29;20047;-71
2022/09/11 04:48:58;;;;;;;18.83;14.80;;;14.60;97.30;;;;;;4949766;29;20053;-70
2022/09/11 04:51:25;;;;;;;19.17;13.77;;;14.60;97.70;;;;;;4948466;28;20049;-69
2022/09/11 04:53:59;;;;;;;15.67;13.00;;;14.70;97.40;;;;;;4935035;29;20444;-71
2022/09/11 04:56:28;;;;;;;44.47;14.93;;;14.70;97.40;;;;;;4947739;29;20301;-71
2022/09/11 04:58:58;;;;;;;47.60;17.00;;;14.60;97.90;;;;;;4932097;28;20059;-70
2022/09/11 05:01:29;;;;;;;25.70;15.43;;;14.60;98.10;;;;;;4931557;29;20043;-70
2022/09/11 05:03:55;;;;;;;34.97;15.65;;;14.70;97.80;;;;;;4953085;28;20050;-70
2022/09/11 05:06:21;;;;;;;23.13;15.63;;;14.60;98.10;;;;;;4951101;29;20047;-70
2022/09/11 05:08:47;;;;;;;40.47;16.77;;;14.60;98.10;;;;;;4931753;29;20051;-70
2022/09/11 05:11:15;;;;;;;22.23;14.00;;;14.70;98.10;;;;;;4933414;29;20063;-70
2022/09/11 05:13:41;;;;;;;18.15;14.35;;;14.70;97.90;;;;;;4935220;29;20481;-70
2022/09/11 05:16:13;;;;;;;22.85;14.93;;;14.80;97.50;;;;;;4920771;29;20047;-70
2022/09/11 05:18:39;;;;;;;22.10;14.50;;;14.80;97.70;;;;;;4946274;29;20058;-70
2022/09/11 05:21:07;;;;;;;23.77;16.27;;;14.80;98.10;;;;;;4914252;29;20040;-70
2022/09/11 05:23:33;;;;;;;24.73;16.25;;;14.80;98.10;;;;;;4948596;29;20456;-70
2022/09/11 05:25:59;;;;;;;22.83;16.25;;;14.80;98.10;;;;;;4950007;29;20124;-71
2022/09/11 05:28:27;;;;;;;25.75;17.63;;;14.80;98.10;;;;;;4932191;29;20482;-70
2022/09/11 05:30:54;;;;;;;35.45;18.27;;;14.90;98.20;;;;;;4936151;29;20047;-70
2022/09/11 05:33:22;;;;;;;32.55;20.52;;;14.80;98.50;;;;;;4928463;29;20051;-71
2022/09/11 05:35:49;;;;;;;34.80;20.25;;;14.80;98.60;;;;;;4951953;29;20054;-70
2022/09/11 05:38:16;;;;;;;33.00;19.10;;;14.70;99.20;;;;;;4951364;29;20488;-70
2022/09/11 05:40:49;;;;;;;32.75;18.25;;;14.80;99.00;;;;;;4934985;29;20050;-70
2022/09/11 05:43:16;;;;;;;32.38;19.45;;;14.80;98.80;;;;;;4929169;29;20540;-70
2022/09/11 05:45:43;;;;;;;35.53;20.27;;;14.90;98.50;;;;;;4951663;28;20119;-70
2022/09/11 05:48:09;;;;;;;31.73;18.92;;;14.90;98.50;;;;;;4934326;29;20047;-70
2022/09/11 05:50:45;;;;;;;34.55;19.23;;;14.90;98.70;;;;;;4949611;28;20058;-70
2022/09/11 05:53:13;;;;;;;35.65;19.95;;;14.90;98.80;;;;;;4916511;29;20078;-70
2022/09/11 05:55:43;;;;;;;31.92;19.00;;;14.80;98.90;;;;;;4934254;29;20083;-70
2022/09/11 05:58:10;;;;;;;29.92;17.50;;;14.80;98.90;;;;;;4951081;28;20059;-71
2022/09/11 06:00:35;;;;;;;28.83;16.27;;;14.80;98.90;;;;;;4919974;29;20047;-70
2022/09/11 06:03:01;;;;;;;28.65;16.90;;;14.80;98.80;;;;;;4948817;29;20050;-70
2022/09/11 06:05:27;;;;;;;31.27;16.83;;;14.90;98.60;;;;;;4949726;28;20054;-70
2022/09/11 06:07:54;;;;;;;25.95;15.50;;;14.90;98.30;;;;;;4934287;29;20082;-70
2022/09/11 06:10:20;;;;;;;27.13;15.90;;;15.00;98.30;;;;;;4934382;29;20142;-70
2022/09/11 06:12:49;;;;;;;23.55;14.32;;;15.00;98.30;;;;;;4915476;29;20055;-70
2022/09/11 06:15:19;;;;;;;24.63;14.95;;;15.00;98.20;;;;;;4930793;29;20090;-71
2022/09/11 06:17:48;;;;;;;24.73;14.90;;;15.00;98.20;;;;;;4950591;29;20054;-70
2022/09/11 06:20:19;;;;;;;30.58;15.80;;;15.10;97.90;;;;;;4925542;29;20138;-71
2022/09/11 06:22:45;;;;;;;30.52;17.13;;;15.10;98.10;;;;;;4932324;29;20357;-70
2022/09/11 06:25:19;;;;;;;27.80;15.85;;;15.10;97.90;;;;;;4949773;29;20043;-70
2022/09/11 06:27:45;;;;;;;24.23;14.65;;;15.20;97.70;;;;;;4933872;29;20051;-70
2022/09/11 06:30:17;;;;;;;25.90;15.77;;;15.20;97.80;;;;;;4934145;29;20061;-70
2022/09/11 06:32:43;;;;;;;23.77;14.60;;;15.20;98.00;;;;;;4934703;29;20051;-70
2022/09/11 06:35:12;;;;;;;25.75;14.93;;;15.20;97.80;;;;;;4933163;29;20058;-70
2022/09/11 06:37:41;;;;;;;25.73;15.55;;;15.30;97.90;;;;;;4950163;29;20079;-71
2022/09/11 06:40:07;;;;;;;26.67;15.68;;;15.40;97.80;;;;;;4949747;29;20058;-71
2022/09/11 06:42:46;;;;;;;26.25;15.32;;;15.40;97.60;;;;;;4916002;29;20043;-71
2022/09/11 06:45:12;;;;;;;25.42;14.90;;;15.40;97.60;;;;;;4934011;29;20047;-71
2022/09/11 06:47:40;;;;;;;26.63;15.38;;;15.40;97.50;;;;;;4947235;29;20054;-71
2022/09/11 06:50:08;;;;;;;25.52;14.80;;;15.40;97.80;;;;;;4948832;28;20047;-72
2022/09/11 06:52:36;;;;;;;28.98;16.20;;;15.40;97.80;;;;;;4949452;29;20063;-71
2022/09/11 06:55:02;;;;;;;;;;;15.50;97.70;;;;;;4935178;29;20047;-72
2022/09/11 06:57:28;;;;;;;26.90;16.02;;;15.40;97.80;;;;;;4973212;28;19918;-71
2022/09/11 06:59:53;;;;;;;26.70;16.05;;;15.50;97.60;;;;;;4954836;28;20050;-71
2022/09/11 07:02:19;;;;;;;25.60;14.88;;;15.50;97.60;;;;;;4952064;28;20062;-71
2022/09/11 07:04:46;;;;;;;28.58;17.10;;;15.50;97.60;;;;;;4937282;29;20103;-71
2022/09/11 07:07:11;;;;;;;26.63;15.88;;;15.50;97.70;;;;;;4951412;28;20475;-71
2022/09/11 07:09:37;;;;;;;31.67;17.75;;;15.50;97.70;;;;;;4956678;28;20055;-72
2022/09/11 07:12:03;;;;;;;27.92;16.48;;;15.50;97.90;;;;;;4966134;28;20548;-72
2022/09/11 07:14:30;;;;;;;29.70;16.92;;;15.40;97.90;;;;;;4918115;29;20520;-71
2022/09/11 07:16:55;;;;;;;32.35;18.42;;;15.50;98.00;;;;;;4958949;28;20061;-71
2022/09/11 07:19:24;;;;;;;30.63;18.05;;;15.40;98.20;;;;;;4965452;28;20392;-72
2022/09/11 07:21:50;;;;;;;29.17;18.45;;;15.40;98.30;;;;;;4958992;28;20464;-71
2022/09/11 07:24:17;;;;;;;30.35;18.92;;;15.40;98.50;;;;;;4952325;28;20055;-72
2022/09/11 07:26:53;;;;;;;32.63;18.92;;;15.40;97.90;;;;;;4921685;28;20453;-72
2022/09/11 07:29:22;;;;;;;36.63;20.33;;;15.50;98.30;;;;;;4952703;28;20047;-72
2022/09/11 07:31:50;;;;;;;30.90;18.38;;;15.50;98.10;;;;;;4931339;29;20061;-71
2022/09/11 07:34:16;;;;;;;40.65;22.00;;;15.50;98.20;;;;;;4949913;28;20058;-71
2022/09/11 07:36:45;;;;;;;37.83;22.42;;;15.60;98.20;;;;;;4939780;28;20088;-71
2022/09/11 07:39:20;;;;;;;37.63;21.90;;;15.60;98.30;;;;;;4950724;28;20075;-72
2022/09/11 07:41:56;;;;;;;37.75;22.52;;;15.60;98.40;;;;;;4967421;28;20392;-71
2022/09/11 07:44:22;;;;;;;43.30;24.15;;;15.50;98.40;;;;;;4950263;28;20463;-71
2022/09/11 07:46:59;;;;;;;41.88;25.83;;;15.50;98.60;;;;;;4938730;28;20047;-71
2022/09/11 07:49:26;;;;;;;44.20;24.50;;;15.50;98.40;;;;;;4934839;28;20051;-71
2022/09/11 07:51:53;;;;;;;43.17;25.58;;;15.50;98.50;;;;;;4920273;28;20074;-71
2022/09/11 07:54:19;;;;;;;38.15;25.10;;;15.50;98.60;;;;;;4949725;28;20133;-71
2022/09/11 07:56:46;;;;;;;42.30;24.67;;;15.50;98.50;;;;;;4943232;28;20416;-71
2022/09/11 07:59:11;;;;;;;43.85;26.10;;;15.50;98.40;;;;;;4961819;28;20054;-71
2022/09/11 08:01:37;;;;;;;40.55;25.40;;;15.50;98.50;;;;;;4950877;28;20420;-71
2022/09/11 08:04:05;;;;;;;42.33;24.17;;;15.60;98.50;;;;;;4935412;28;20079;-71
2022/09/11 08:06:33;;;;;;;37.15;25.67;;;15.60;98.30;;;;;;4924445;28;20045;-72
2022/09/11 08:09:02;;;;;;;45.85;26.05;;;15.60;98.40;;;;;;4944181;28;20051;-71
2022/09/11 08:11:28;;;;;;;45.20;26.40;;;15.60;98.40;;;;;;4947864;28;20043;-71
2022/09/11 08:13:55;;;;;;;42.65;25.60;;;15.60;98.30;;;;;;4933647;28;20051;-71
2022/09/11 08:16:23;;;;;;;37.42;25.02;;;15.60;98.50;;;;;;4949651;28;20047;-72
2022/09/11 08:18:49;;;;;;;45.10;26.48;;;15.60;98.30;;;;;;4949097;28;20046;-71
2022/09/11 08:21:15;;;;;;;43.38;25.92;;;15.70;98.30;;;;;;4957840;28;20051;-71
2022/09/11 08:23:41;;;;;;;42.38;24.92;;;15.70;98.30;;;;;;4954885;28;20047;-71
2022/09/11 08:26:22;;;;;;;40.05;24.52;;;15.70;98.10;;;;;;4936523;29;20050;-71
2022/09/11 08:28:49;;;;;;;40.60;26.17;;;15.70;98.20;;;;;;4987447;28;20054;-71
2022/09/11 08:31:15;;;;;;;39.88;26.05;;;15.70;98.30;;;;;;4961909;28;20046;-71
2022/09/11 08:33:41;;;;;;;45.05;27.25;;;15.70;98.10;;;;;;4931350;28;20046;-71
2022/09/11 08:36:08;;;;;;;39.65;26.30;;;15.80;98.20;;;;;;4933126;28;20577;-71
2022/09/11 08:38:34;;;;;;;41.30;25.58;;;15.80;98.10;;;;;;4936491;28;20177;-71
2022/09/11 08:41:39;;;;;;;45.17;28.45;;;15.80;98.10;;;;;;4961919;28;20065;-72
2022/09/11 08:44:08;;;;;;;47.13;26.92;;;15.80;98.30;;;;;;4952900;28;20039;-72
2022/09/11 08:46:43;;;;;;;;;;;15.80;98.40;;;;;;4958183;28;20039;-71
2022/09/11 08:49:18;;;;;;;40.95;26.33;;;15.80;98.20;;;;;;4981416;28;20284;-71
2022/09/11 08:51:45;;;;;;;43.60;26.92;;;15.90;98.10;;;;;;4958661;28;20047;-71
2022/09/11 08:54:26;;;;;;;40.87;27.10;;;15.90;98.00;;;;;;4905437;28;20170;-71
2022/09/11 08:56:56;;;;;;;44.13;27.20;;;15.90;98.00;;;;;;4936862;28;20382;-71
2022/09/11 08:59:46;;;;;;;43.92;26.08;;;16.00;98.20;;;;;;4940531;28;20279;-71
2022/09/11 09:02:37;;;;;;;40.83;25.48;;;16.00;97.90;;;;;;4940299;28;20057;-71
2022/09/11 09:05:25;;;;;;;37.85;25.38;;;16.00;98.10;;;;;;4958207;28;20066;-71
2022/09/11 09:08:12;;;;;;;40.97;25.45;;;16.00;98.00;;;;;;4957476;28;20473;-71
2022/09/11 09:10:44;;;;;;;44.35;27.83;;;16.00;98.00;;;;;;4978587;28;20455;-71
2022/09/11 09:13:35;;;;;;;42.10;25.63;;;16.00;98.00;;;;;;4972496;28;20082;-71
2022/09/11 09:16:21;;;;;;;38.05;25.23;;;15.90;97.90;;;;;;4955799;28;20053;-71
2022/09/11 09:18:54;;;;;;;41.47;27.20;;;16.00;97.80;;;;;;4951744;28;20057;-71
2022/09/11 09:21:24;;;;;;;39.78;27.23;;;16.00;98.00;;;;;;4994549;28;20731;-71
2022/09/11 09:23:54;;;;;;;37.85;25.95;;;16.00;97.60;;;;;;4952141;28;20133;-71
2022/09/11 09:26:20;;;;;;;38.70;26.42;;;16.10;97.90;;;;;;4906922;28;20054;-71
2022/09/11 09:28:47;;;;;;;39.33;25.58;;;16.20;98.00;;;;;;4929071;28;20454;-71
2022/09/11 09:31:21;;;;;;;43.60;26.17;;;16.30;97.60;;;;;;4936080;28;20061;-71
2022/09/11 09:34:00;;;;;;;43.33;28.15;;;16.30;97.50;;;;;;4935977;28;20058;-71
2022/09/11 09:36:31;;;;;;;44.30;27.52;;;16.40;97.70;;;;;;4940730;28;20052;-71
2022/09/11 09:38:57;;;;;;;36.95;26.35;;;16.30;97.80;;;;;;4967508;28;20078;-71
2022/09/11 09:41:32;;;;;;;34.03;25.08;;;16.30;97.50;;;;;;4940246;28;20062;-72
2022/09/11 09:44:15;;;;;;;31.05;22.75;;;16.30;97.20;;;;;;4971378;28;20070;-71
2022/09/11 09:46:54;;;;;;;36.80;24.50;;;16.40;96.80;;;;;;4956258;28;20054;-71
2022/09/11 09:49:28;;;;;;;37.28;25.42;;;16.40;97.00;;;;;;4971489;28;20144;-71
2022/09/11 09:51:55;;;;;;;37.50;25.20;;;16.40;96.90;;;;;;4924506;28;20046;-71
2022/09/11 09:54:21;;;;;;;36.92;23.95;;;16.40;97.30;;;;;;4949486;28;20051;-71
2022/09/11 09:57:09;;;;;;;35.10;23.80;;;16.50;97.20;;;;;;4941601;28;20619;-71
2022/09/11 09:59:50;;;;;;;32.92;23.10;;;16.60;97.00;;;;;;4967703;28;20609;-71
2022/09/11 10:02:37;;;;;;;29.92;21.55;;;16.60;96.60;;;;;;4946283;28;20362;-71
2022/09/11 10:05:15;;;;;;;31.08;20.88;;;16.80;96.30;;;;;;4977138;28;20369;-71
2022/09/11 10:07:53;;;;;;;29.08;20.92;;;16.90;95.80;;;;;;4967579;28;20046;-71
2022/09/11 10:10:38;;;;;;;34.88;21.88;;;17.10;95.80;;;;;;4971530;28;20047;-71
2022/09/11 10:13:13;;;;;;;28.13;19.70;;;17.30;95.30;;;;;;4954867;28;20053;-72
2022/09/11 10:15:38;;;;;;;28.40;19.13;;;17.50;94.70;;;;;;4971485;28;20506;-71
2022/09/11 10:18:21;;;;;;;21.50;16.63;;;17.70;94.40;;;;;;4954877;28;20078;-72
2022/09/11 10:20:47;;;;;;;22.58;15.63;;;17.80;93.60;;;;;;4953904;28;20089;-71
2022/09/11 10:23:26;;;;;;;19.77;15.45;;;18.10;93.50;;;;;;4953994;28;20074;-71
2022/09/11 10:25:51;;;;;;;21.95;15.13;;;18.20;93.00;;;;;;4938168;28;20043;-71
2022/09/11 10:28:25;;;;;;;19.10;15.52;;;18.30;92.70;;;;;;4938385;28;20050;-71
2022/09/11 10:30:52;;;;;;;20.27;14.13;;;18.40;92.10;;;;;;4972006;28;20039;-71
2022/09/11 10:33:29;;;;;;;20.67;13.70;;;18.50;91.80;;;;;;4955927;28;20066;-71
2022/09/11 10:35:55;;;;;;;17.13;13.07;;;18.50;91.50;;;;;;4953747;28;20073;-71
2022/09/11 10:38:35;;;;;;;16.27;12.80;;;18.50;91.20;;;;;;4947935;28;20496;-71
2022/09/11 10:41:17;;;;;;;15.18;12.25;;;18.80;90.70;;;;;;4972491;28;20051;-71
2022/09/11 10:43:54;;;;;;;17.92;12.68;;;18.90;89.40;;;;;;4974807;28;20046;-71
2022/09/11 10:46:23;;;;;;;16.27;11.77;;;18.70;89.20;;;;;;4970845;28;20121;-71
2022/09/11 10:49:13;;;;;;;13.88;10.73;;;18.70;89.70;;;;;;4933284;28;20055;-70
2022/09/11 10:51:40;;;;;;;12.93;9.90;;;18.80;89.90;;;;;;4975127;28;20389;-71
2022/09/11 10:54:33;;;;;;;15.30;11.25;;;18.70;89.20;;;;;;4950021;28;20460;-71
2022/09/11 10:57:27;;;;;;;18.77;12.10;;;18.50;90.10;;;;;;4972114;28;20485;-71
2022/09/11 11:00:07;;;;;;;17.13;12.82;;;18.40;90.40;;;;;;4985306;28;20065;-70
2022/09/11 11:02:35;;;;;;;15.27;11.57;;;18.30;90.70;;;;;;4942863;28;20057;-71
2022/09/11 11:05:25;;;;;;;16.60;11.23;;;18.50;90.40;;;;;;4937718;28;20114;-71
2022/09/11 11:08:07;;;;;;;15.70;11.35;;;18.60;90.30;;;;;;4940860;28;20046;-71
2022/09/11 11:10:55;;;;;;;12.27;9.55;;;18.70;88.20;;;;;;4972072;28;20042;-71
2022/09/11 11:14:03;;;;;;;12.15;9.25;;;18.60;87.20;;;;;;4979923;28;20494;-71
2022/09/11 11:16:48;;;;;;;11.68;8.80;;;18.80;87.50;;;;;;4969072;28;20057;-71
2022/09/11 11:19:33;;;;;;;12.23;8.55;;;19.20;86.50;;;;;;4970228;28;20050;-70
2022/09/11 11:22:07;;;;;;;13.18;10.10;;;19.30;85.60;;;;;;4970386;28;20353;-70
2022/09/11 11:25:08;;;;;;;14.45;10.43;;;19.10;85.80;;;;;;5004558;28;20053;-70
2022/09/11 11:28:11;;;;;;;15.93;9.75;;;19.20;85.50;;;;;;4980503;28;20417;-70
2022/09/11 11:31:06;;;;;;;11.95;8.45;;;18.90;84.00;;;;;;4977445;28;20050;-70
2022/09/11 11:34:10;;;;;;;13.50;9.23;;;19.00;86.50;;;;;;4970185;28;20661;-71
2022/09/11 11:36:44;;;;;;;12.32;9.32;;;19.40;85.40;;;;;;4969679;28;20556;-70
2022/09/11 11:39:32;;;;;;;12.50;8.57;;;19.50;84.70;;;;;;4971134;28;20070;-70
2022/09/11 11:42:32;;;;;;;10.98;7.72;;;19.50;84.40;;;;;;4967338;28;20042;-70
2022/09/11 11:45:09;;;;;;;10.63;8.07;;;19.10;84.00;;;;;;4969944;28;20042;-71
2022/09/11 11:47:41;;;;;;;10.90;7.68;;;18.90;82.90;;;;;;4979909;28;20042;-70
2022/09/11 11:50:17;;;;;;;11.45;8.30;;;19.10;84.90;;;;;;4981072;28;20131;-71
2022/09/11 11:53:27;;;;;;;9.77;7.63;;;19.20;83.90;;;;;;4981404;28;20050;-71
2022/09/11 11:56:32;;;;;;;12.00;7.18;;;19.20;83.50;;;;;;4962437;28;20046;-69
2022/09/11 11:59:24;;;;;;;14.35;7.75;;;19.10;84.10;;;;;;4972544;28;20117;-70
2022/09/11 12:02:08;;;;;;;9.85;6.70;;;18.90;85.30;;;;;;4973243;28;20472;-71
2022/09/11 12:05:03;;;;;;;10.50;7.95;;;18.90;84.60;;;;;;4982019;28;20125;-70
2022/09/11 12:07:33;;;;;;;10.90;7.85;;;18.90;85.20;;;;;;4975782;28;20047;-70
2022/09/11 12:10:01;;;;;;;10.13;7.30;;;18.90;85.00;;;;;;4956214;28;20073;-71
2022/09/11 12:12:32;;;;;;;9.63;7.55;;;19.10;84.60;;;;;;4972790;28;20476;-71
2022/09/11 12:15:07;;;;;;;10.80;7.45;;;19.40;83.00;;;;;;4940996;28;20145;-70
2022/09/11 12:17:34;;;;;;;8.48;6.82;;;19.40;81.60;;;;;;4956901;28;20047;-70
2022/09/11 12:20:09;;;;;;;10.38;6.80;;;19.30;82.30;;;;;;4965904;28;20090;-71
2022/09/11 12:22:55;;;;;;;9.82;6.35;;;19.70;81.50;;;;;;4970036;28;20182;-71
2022/09/11 12:25:21;;;;;;;10.30;6.88;;;20.00;81.50;;;;;;4969638;28;20490;-71
2022/09/11 12:27:54;;;;;;;12.40;6.50;;;20.20;80.00;;;;;;4972408;28;20042;-71
2022/09/11 12:30:56;;;;;;;9.07;6.43;;;20.20;79.20;;;;;;4959500;28;20543;-71
2022/09/11 12:33:40;;;;;;;9.50;7.32;;;20.30;79.40;;;;;;4971892;28;20479;-71
2022/09/11 12:36:23;;;;;;;9.23;5.95;;;20.30;79.80;;;;;;4980649;28;20749;-70
2022/09/11 12:39:00;;;;;;;9.02;6.68;;;20.50;79.90;;;;;;4937506;28;20145;-70
2022/09/11 12:41:33;;;;;;;12.05;6.70;;;20.40;77.70;;;;;;4954601;28;20118;-71
2022/09/11 12:44:00;;;;;;;7.22;5.95;;;20.10;78.50;;;;;;4952909;28;20069;-71
2022/09/11 12:46:26;;;;;;;7.70;5.43;;;20.60;77.90;;;;;;4970728;28;20361;-71
2022/09/11 12:49:09;;;;;;;8.13;6.07;;;21.30;75.20;;;;;;4968805;28;20054;-70
2022/09/11 12:51:52;;;;;;;9.52;5.93;;;21.20;74.30;;;;;;4962310;28;20057;-71
2022/09/11 12:54:32;;;;;;;7.18;6.03;;;21.00;75.50;;;;;;4968299;28;20059;-71
2022/09/11 12:57:09;;;;;;;7.05;5.53;;;21.10;75.90;;;;;;4955684;28;20054;-71
2022/09/11 12:59:42;;;;;;;9.30;5.93;;;21.30;74.40;;;;;;4955074;28;20050;-71